sensor_id;sensor_type;location;lat;lon;timestamp;P1;P2;P0
60374;PMS5003;70244;48.792;9.172;2024-01-11T05:16:31;21;20;
60374;PMS5003;70244;48.792;9.172;2024-01-11T05:19:01;22;17;
60374;PMS5003;70244;48.792;9.172;2024-01-11T05:21:14;22;22;
60374;PMS5003;70244;48.792;9.172;2024-01-11T05:23:44;22;20;
60374;PMS5003;70244;48.792;9.172;2024-01-11T05:26:15;19;19;
60374;PMS5003;70244;48.792;9.172;2024-01-11T05:28:45;20;18;
60374;PMS5003;70244;48.792;9.172;2024-01-11T05:31:15;15;14;
60374;PMS5003;70244;48.792;9.172;2024-01-11T05:33:46;21;17;
60374;PMS5003;70244;48.792;9.172;2024-01-11T05:36:17;18;17;
60374;PMS5003;70244;48.792;9.172;2024-01-11T05:38:47;21;18;
60374;PMS5003;70244;48.792;9.172;2024-01-11T05:41:18;18;16;
60374;PMS5003;70244;48.792;9.172;2024-01-11T05:43:49;19;18;
60374;PMS5003;70244;48.792;9.172;2024-01-11T05:46:19;16;16;
60374;PMS5003;70244;48.792;9.172;2024-01-11T05:48:50;18;18;
60374;PMS5003;70244;48.792;9.172;2024-01-11T05:51:21;19;19;
60374;PMS5003;70244;48.792;9.172;2024-01-11T05:53:51;17;16;
60374;PMS5003;70244;48.792;9.172;2024-01-11T05:56:22;19;18;
60374;PMS5003;70244;48.792;9.172;2024-01-11T05:58:52;34;25;
60374;PMS5003;70244;48.792;9.172;2024-01-11T06:01:23;29;25;
60374;PMS5003;70244;48.792;9.172;2024-01-11T06:03:54;25;22;
60374;PMS5003;70244;48.792;9.172;2024-01-11T06:06:24;27;23;
60374;PMS5003;70244;48.792;9.172;2024-01-11T06:08:55;25;23;
60374;PMS5003;70244;48.792;9.172;2024-01-11T06:11:25;27;23;
60374;PMS5003;70244;48.792;9.172;2024-01-11T06:13:56;22;21;
60374;PMS5003;70244;48.792;9.172;2024-01-11T06:16:26;23;22;
60374;PMS5003;70244;48.792;9.172;2024-01-11T06:18:57;26;24;
60374;PMS5003;70244;48.792;9.172;2024-01-11T06:21:28;22;21;
60374;PMS5003;70244;48.792;9.172;2024-01-11T06:23:58;24;23;
60374;PMS5003;70244;48.792;9.172;2024-01-11T06:26:28;29;26;
60374;PMS5003;70244;48.792;9.172;2024-01-11T06:28:59;33;29;
60374;PMS5003;70244;48.792;9.172;2024-01-11T06:31:29;36;29;
60374;PMS5003;70244;48.792;9.172;2024-01-11T06:34:00;36;32;
60374;PMS5003;70244;48.792;9.172;2024-01-11T06:36:31;32;30;
60374;PMS5003;70244;48.792;9.172;2024-01-11T06:39:01;33;29;
60374;PMS5003;70244;48.792;9.172;2024-01-11T06:41:32;35;30;
60374;PMS5003;70244;48.792;9.172;2024-01-11T06:44:02;31;30;
60374;PMS5003;70244;48.792;9.172;2024-01-11T06:46:33;33;27;
60374;PMS5003;70244;48.792;9.172;2024-01-11T06:49:03;28;26;
60374;PMS5003;70244;48.792;9.172;2024-01-11T06:51:33;30;27;
60374;PMS5003;70244;48.792;9.172;2024-01-11T06:54:03;31;29;
60374;PMS5003;70244;48.792;9.172;2024-01-11T06:56:34;28;26;
60374;PMS5003;70244;48.792;9.172;2024-01-11T06:59:04;28;26;
60374;PMS5003;70244;48.792;9.172;2024-01-11T07:01:35;27;26;
60374;PMS5003;70244;48.792;9.172;2024-01-11T07:04:05;27;23;
60374;PMS5003;70244;48.792;9.172;2024-01-11T07:06:35;29;27;
60374;PMS5003;70244;48.792;9.172;2024-01-11T07:09:06;30;23;
60374;PMS5003;70244;48.792;9.172;2024-01-11T07:11:36;30;27;
60374;PMS5003;70244;48.792;9.172;2024-01-11T07:14:07;25;21;
60374;PMS5003;70244;48.792;9.172;2024-01-11T07:16:37;30;28;
60374;PMS5003;70244;48.792;9.172;2024-01-11T07:19:07;28;25;
60374;PMS5003;70244;48.792;9.172;2024-01-11T07:21:38;31;24;
60374;PMS5003;70244;48.792;9.172;2024-01-11T07:24:08;25;24;
60374;PMS5003;70244;48.792;9.172;2024-01-11T07:26:39;24;23;
60374;PMS5003;70244;48.792;9.172;2024-01-11T07:29:10;27;25;
60374;PMS5003;70244;48.792;9.172;2024-01-11T07:31:40;25;24;
60374;PMS5003;70244;48.792;9.172;2024-01-11T07:34:11;25;21;
60374;PMS5003;70244;48.792;9.172;2024-01-11T07:36:42;21;21;
60374;PMS5003;70244;48.792;9.172;2024-01-11T07:39:12;22;22;
60374;PMS5003;70244;48.792;9.172;2024-01-11T07:41:42;22;21;
60374;PMS5003;70244;48.792;9.172;2024-01-11T07:44:12;22;22;
60374;PMS5003;70244;48.792;9.172;2024-01-11T07:46:43;22;19;
60374;PMS5003;70244;48.792;9.172;2024-01-11T07:49:13;26;24;
60374;PMS5003;70244;48.792;9.172;2024-01-11T07:51:44;25;24;
60374;PMS5003;70244;48.792;9.172;2024-01-11T07:54:14;23;23;
60374;PMS5003;70244;48.792;9.172;2024-01-11T07:56:45;26;24;
60374;PMS5003;70244;48.792;9.172;2024-01-11T07:59:15;23;23;
60374;PMS5003;70244;48.792;9.172;2024-01-11T08:01:46;21;20;
60374;PMS5003;70244;48.792;9.172;2024-01-11T08:04:16;28;26;
60374;PMS5003;70244;48.792;9.172;2024-01-11T08:06:46;23;21;
60374;PMS5003;70244;48.792;9.172;2024-01-11T08:09:17;25;24;
60374;PMS5003;70244;48.792;9.172;2024-01-11T08:11:47;22;22;
60374;PMS5003;70244;48.792;9.172;2024-01-11T08:14:17;25;22;
60374;PMS5003;70244;48.792;9.172;2024-01-11T08:16:48;21;21;
60374;PMS5003;70244;48.792;9.172;2024-01-11T08:19:18;25;25;
60374;PMS5003;70244;48.792;9.172;2024-01-11T08:21:48;27;25;
60374;PMS5003;70244;48.792;9.172;2024-01-11T08:24:19;29;24;
60374;PMS5003;70244;48.792;9.172;2024-01-11T08:26:49;24;24;
60374;PMS5003;70244;48.792;9.172;2024-01-11T08:29:20;22;21;
60374;PMS5003;70244;48.792;9.172;2024-01-11T08:31:51;24;19;
60374;PMS5003;70244;48.792;9.172;2024-01-11T08:34:21;25;24;
60374;PMS5003;70244;48.792;9.172;2024-01-11T08:36:51;25;25;
60374;PMS5003;70244;48.792;9.172;2024-01-11T08:39:21;24;21;
60374;PMS5003;70244;48.792;9.172;2024-01-11T08:41:52;27;25;
60374;PMS5003;70244;48.792;9.172;2024-01-11T08:44:22;26;22;
60374;PMS5003;70244;48.792;9.172;2024-01-11T08:46:52;26;22;
60374;PMS5003;70244;48.792;9.172;2024-01-11T08:49:23;23;22;
60374;PMS5003;70244;48.792;9.172;2024-01-11T08:51:54;21;20;
60374;PMS5003;70244;48.792;9.172;2024-01-11T08:54:24;20;19;
60374;PMS5003;70244;48.792;9.172;2024-01-11T08:56:55;25;22;
60374;PMS5003;70244;48.792;9.172;2024-01-11T08:59:25;24;23;
60374;PMS5003;70244;48.792;9.172;2024-01-11T09:01:55;21;21;
60374;PMS5003;70244;48.792;9.172;2024-01-11T09:04:26;24;19;
60374;PMS5003;70244;48.792;9.172;2024-01-11T09:06:57;24;23;
60374;PMS5003;70244;48.792;9.172;2024-01-11T09:09:27;22;20;
60374;PMS5003;70244;48.792;9.172;2024-01-11T09:11:58;22;22;
60374;PMS5003;70244;48.792;9.172;2024-01-11T09:14:29;20;19;
60374;PMS5003;70244;48.792;9.172;2024-01-11T09:16:59;22;20;
60374;PMS5003;70244;48.792;9.172;2024-01-11T09:19:30;24;22;
60374;PMS5003;70244;48.792;9.172;2024-01-11T09:22:00;20;19;
60374;PMS5003;70244;48.792;9.172;2024-01-11T09:24:31;23;22;
60374;PMS5003;70244;48.792;9.172;2024-01-11T09:27:02;21;18;
60374;PMS5003;70244;48.792;9.172;2024-01-11T09:29:32;24;24;
60374;PMS5003;70244;48.792;9.172;2024-01-11T09:32:03;24;22;
60374;PMS5003;70244;48.792;9.172;2024-01-11T09:34:33;19;19;
60374;PMS5003;70244;48.792;9.172;2024-01-11T09:37:04;21;18;
60374;PMS5003;70244;48.792;9.172;2024-01-11T09:39:34;21;21;
60374;PMS5003;70244;48.792;9.172;2024-01-11T09:42:06;23;23;
60374;PMS5003;70244;48.792;9.172;2024-01-11T09:44:35;24;21;
60374;PMS5003;70244;48.792;9.172;2024-01-11T09:47:05;24;20;
60374;PMS5003;70244;48.792;9.172;2024-01-11T09:49:36;30;25;
60374;PMS5003;70244;48.792;9.172;2024-01-11T09:52:06;17;15;
60374;PMS5003;70244;48.792;9.172;2024-01-11T09:54:37;18;18;
60374;PMS5003;70244;48.792;9.172;2024-01-11T09:57:07;21;21;
60374;PMS5003;70244;48.792;9.172;2024-01-11T09:59:38;19;18;
60374;PMS5003;70244;48.792;9.172;2024-01-11T10:02:08;21;19;
60374;PMS5003;70244;48.792;9.172;2024-01-11T10:04:40;19;19;
60374;PMS5003;70244;48.792;9.172;2024-01-11T10:07:09;20;19;
60374;PMS5003;70244;48.792;9.172;2024-01-11T10:09:39;21;19;
60374;PMS5003;70244;48.792;9.172;2024-01-11T10:12:10;22;20;
60374;PMS5003;70244;48.792;9.172;2024-01-11T10:14:40;20;17;
60374;PMS5003;70244;48.792;9.172;2024-01-11T10:17:11;22;21;
60374;PMS5003;70244;48.792;9.172;2024-01-11T10:19:41;23;21;
60374;PMS5003;70244;48.792;9.172;2024-01-11T10:22:12;19;17;
60374;PMS5003;70244;48.792;9.172;2024-01-11T10:24:43;21;20;
60374;PMS5003;70244;48.792;9.172;2024-01-11T10:27:13;17;17;
60374;PMS5003;70244;48.792;9.172;2024-01-11T10:29:44;20;18;
60374;PMS5003;70244;48.792;9.172;2024-01-11T10:32:14;20;20;
60374;PMS5003;70244;48.792;9.172;2024-01-11T10:34:45;20;19;
60374;PMS5003;70244;48.792;9.172;2024-01-11T10:37:15;21;20;
60374;PMS5003;70244;48.792;9.172;2024-01-11T10:39:46;17;16;
60374;PMS5003;70244;48.792;9.172;2024-01-11T10:42:17;23;22;
60374;PMS5003;70244;48.792;9.172;2024-01-11T10:44:47;23;20;
60374;PMS5003;70244;48.792;9.172;2024-01-11T10:47:18;23;18;
60374;PMS5003;70244;48.792;9.172;2024-01-11T10:49:48;23;21;
60374;PMS5003;70244;48.792;9.172;2024-01-11T10:52:20;22;20;
60374;PMS5003;70244;48.792;9.172;2024-01-11T10:54:49;19;19;
60374;PMS5003;70244;48.792;9.172;2024-01-11T10:57:20;20;20;
60374;PMS5003;70244;48.792;9.172;2024-01-11T10:59:50;19;19;
60374;PMS5003;70244;48.792;9.172;2024-01-11T11:02:21;18;17;
60374;PMS5003;70244;48.792;9.172;2024-01-11T11:04:52;17;17;
60374;PMS5003;70244;48.792;9.172;2024-01-11T11:07:22;16;16;
60374;PMS5003;70244;48.792;9.172;2024-01-11T11:09:52;23;19;
60374;PMS5003;70244;48.792;9.172;2024-01-11T11:12:23;20;19;
60374;PMS5003;70244;48.792;9.172;2024-01-11T11:14:53;18;18;
60374;PMS5003;70244;48.792;9.172;2024-01-11T11:17:23;19;19;
60374;PMS5003;70244;48.792;9.172;2024-01-11T11:19:54;19;17;
60374;PMS5003;70244;48.792;9.172;2024-01-11T11:22:26;20;18;
60374;PMS5003;70244;48.792;9.172;2024-01-11T11:27:26;22;20;
60374;PMS5003;70244;48.792;9.172;2024-01-11T11:29:56;22;22;
60374;PMS5003;70244;48.792;9.172;2024-01-11T11:34:57;23;20;
60374;PMS5003;70244;48.792;9.172;2024-01-11T11:37:29;23;20;
60374;PMS5003;70244;48.792;9.172;2024-01-11T11:39:58;19;18;
60374;PMS5003;70244;48.792;9.172;2024-01-11T11:42:30;18;18;
60374;PMS5003;70244;48.792;9.172;2024-01-11T11:44:59;23;18;
60374;PMS5003;70244;48.792;9.172;2024-01-11T11:47:33;21;21;
60374;PMS5003;70244;48.792;9.172;2024-01-11T11:50:04;21;19;
60374;PMS5003;70244;48.792;9.172;2024-01-11T11:52:32;25;21;
60374;PMS5003;70244;48.792;9.172;2024-01-11T11:55:02;20;19;
60374;PMS5003;70244;48.792;9.172;2024-01-11T11:57:32;22;18;
60374;PMS5003;70244;48.792;9.172;2024-01-11T12:00:02;18;18;
60374;PMS5003;70244;48.792;9.172;2024-01-11T12:02:33;22;18;
60374;PMS5003;70244;48.792;9.172;2024-01-11T12:05:03;19;19;
60374;PMS5003;70244;48.792;9.172;2024-01-11T12:07:34;23;19;
60374;PMS5003;70244;48.792;9.172;2024-01-11T12:10:05;14;12;
60374;PMS5003;70244;48.792;9.172;2024-01-11T12:12:34;18;18;
60374;PMS5003;70244;48.792;9.172;2024-01-11T12:15:05;21;16;
60374;PMS5003;70244;48.792;9.172;2024-01-11T12:17:35;19;18;
60374;PMS5003;70244;48.792;9.172;2024-01-11T12:20:06;20;19;
60374;PMS5003;70244;48.792;9.172;2024-01-11T12:22:37;18;17;
60374;PMS5003;70244;48.792;9.172;2024-01-11T12:25:07;21;20;
60374;PMS5003;70244;48.792;9.172;2024-01-11T12:27:38;17;17;
60374;PMS5003;70244;48.792;9.172;2024-01-11T12:30:09;21;19;
60374;PMS5003;70244;48.792;9.172;2024-01-11T12:32:38;19;18;
60374;PMS5003;70244;48.792;9.172;2024-01-11T12:35:09;19;17;
60374;PMS5003;70244;48.792;9.172;2024-01-11T12:37:39;17;17;
60374;PMS5003;70244;48.792;9.172;2024-01-11T12:40:12;21;20;
60374;PMS5003;70244;48.792;9.172;2024-01-11T12:42:40;19;16;
60374;PMS5003;70244;48.792;9.172;2024-01-11T12:45:12;20;20;
60374;PMS5003;70244;48.792;9.172;2024-01-11T12:47:41;19;17;
60374;PMS5003;70244;48.792;9.172;2024-01-11T12:50:12;20;18;
60374;PMS5003;70244;48.792;9.172;2024-01-11T12:52:42;20;20;
60374;PMS5003;70244;48.792;9.172;2024-01-11T12:55:17;21;19;
60374;PMS5003;70244;48.792;9.172;2024-01-11T12:57:44;18;17;
60374;PMS5003;70244;48.792;9.172;2024-01-11T13:00:14;23;20;
60374;PMS5003;70244;48.792;9.172;2024-01-11T13:02:44;19;18;
60374;PMS5003;70244;48.792;9.172;2024-01-11T13:05:15;18;17;
60374;PMS5003;70244;48.792;9.172;2024-01-11T13:07:46;17;15;
60374;PMS5003;70244;48.792;9.172;2024-01-11T13:10:16;18;16;
60374;PMS5003;70244;48.792;9.172;2024-01-11T13:12:47;18;16;
60374;PMS5003;70244;48.792;9.172;2024-01-11T13:15:17;18;15;
60374;PMS5003;70244;48.792;9.172;2024-01-11T13:17:48;19;17;
60374;PMS5003;70244;48.792;9.172;2024-01-11T13:20:19;21;21;
60374;PMS5003;70244;48.792;9.172;2024-01-11T13:22:49;21;18;
60374;PMS5003;70244;48.792;9.172;2024-01-11T13:25:20;16;14;
60374;PMS5003;70244;48.792;9.172;2024-01-11T13:27:50;22;20;
60374;PMS5003;70244;48.792;9.172;2024-01-11T13:30:21;20;20;
60374;PMS5003;70244;48.792;9.172;2024-01-11T13:32:52;18;18;
60374;PMS5003;70244;48.792;9.172;2024-01-11T13:35:22;21;18;
60374;PMS5003;70244;48.792;9.172;2024-01-11T13:37:53;23;19;
60374;PMS5003;70244;48.792;9.172;2024-01-11T13:40:24;18;17;
60374;PMS5003;70244;48.792;9.172;2024-01-11T13:42:54;19;18;
60374;PMS5003;70244;48.792;9.172;2024-01-11T13:45:25;19;19;
60374;PMS5003;70244;48.792;9.172;2024-01-11T13:47:56;15;15;
60374;PMS5003;70244;48.792;9.172;2024-01-11T13:50:27;16;15;
60374;PMS5003;70244;48.792;9.172;2024-01-11T13:52:57;17;16;
60374;PMS5003;70244;48.792;9.172;2024-01-11T13:55:28;19;19;
60374;PMS5003;70244;48.792;9.172;2024-01-11T13:57:58;23;21;
60374;PMS5003;70244;48.792;9.172;2024-01-11T14:00:29;18;14;
60374;PMS5003;70244;48.792;9.172;2024-01-11T14:02:59;18;18;
60374;PMS5003;70244;48.792;9.172;2024-01-11T14:05:30;20;20;
60374;PMS5003;70244;48.792;9.172;2024-01-11T14:08:01;19;18;
60374;PMS5003;70244;48.792;9.172;2024-01-11T14:10:31;18;18;
60374;PMS5003;70244;48.792;9.172;2024-01-11T14:13:02;18;16;
60374;PMS5003;70244;48.792;9.172;2024-01-11T14:15:33;18;16;
60374;PMS5003;70244;48.792;9.172;2024-01-11T14:18:05;17;17;
60374;PMS5003;70244;48.792;9.172;2024-01-11T14:20:34;23;20;
60374;PMS5003;70244;48.792;9.172;2024-01-11T14:23:04;18;18;
60374;PMS5003;70244;48.792;9.172;2024-01-11T14:25:35;20;18;
60374;PMS5003;70244;48.792;9.172;2024-01-11T14:28:05;18;16;
60374;PMS5003;70244;48.792;9.172;2024-01-11T14:30:36;20;18;
60374;PMS5003;70244;48.792;9.172;2024-01-11T14:33:07;20;18;
60374;PMS5003;70244;48.792;9.172;2024-01-11T14:35:37;15;15;
60374;PMS5003;70244;48.792;9.172;2024-01-11T14:38:07;19;16;
60374;PMS5003;70244;48.792;9.172;2024-01-11T14:40:38;19;19;
60374;PMS5003;70244;48.792;9.172;2024-01-11T14:43:08;18;16;
60374;PMS5003;70244;48.792;9.172;2024-01-11T14:45:39;17;17;
60374;PMS5003;70244;48.792;9.172;2024-01-11T14:48:09;17;16;
60374;PMS5003;70244;48.792;9.172;2024-01-11T14:50:40;17;16;
60374;PMS5003;70244;48.792;9.172;2024-01-11T14:53:11;16;16;
60374;PMS5003;70244;48.792;9.172;2024-01-11T14:55:42;17;17;
60374;PMS5003;70244;48.792;9.172;2024-01-11T14:58:12;17;16;
60374;PMS5003;70244;48.792;9.172;2024-01-11T15:00:42;20;19;
60374;PMS5003;70244;48.792;9.172;2024-01-11T15:03:13;20;20;
60374;PMS5003;70244;48.792;9.172;2024-01-11T15:05:43;18;17;
60374;PMS5003;70244;48.792;9.172;2024-01-11T15:08:14;16;16;
60374;PMS5003;70244;48.792;9.172;2024-01-11T15:10:44;20;16;
60374;PMS5003;70244;48.792;9.172;2024-01-11T15:13:14;21;19;
60374;PMS5003;70244;48.792;9.172;2024-01-11T15:15:44;19;17;
60374;PMS5003;70244;48.792;9.172;2024-01-11T15:18:15;17;15;
60374;PMS5003;70244;48.792;9.172;2024-01-11T15:20:45;21;18;
60374;PMS5003;70244;48.792;9.172;2024-01-11T15:23:16;17;17;
60374;PMS5003;70244;48.792;9.172;2024-01-11T15:25:46;17;17;
60374;PMS5003;70244;48.792;9.172;2024-01-11T15:28:16;20;19;
60374;PMS5003;70244;48.792;9.172;2024-01-11T15:30:47;18;18;
60374;PMS5003;70244;48.792;9.172;2024-01-11T15:33:17;22;19;
60374;PMS5003;70244;48.792;9.172;2024-01-11T15:35:48;19;16;
60374;PMS5003;70244;48.792;9.172;2024-01-11T15:38:18;16;15;
60374;PMS5003;70244;48.792;9.172;2024-01-11T15:40:48;17;15;
60374;PMS5003;70244;48.792;9.172;2024-01-11T15:43:19;17;16;
60374;PMS5003;70244;48.792;9.172;2024-01-11T15:45:50;23;21;
60374;PMS5003;70244;48.792;9.172;2024-01-11T15:48:20;18;15;
60374;PMS5003;70244;48.792;9.172;2024-01-11T15:50:51;18;17;
60374;PMS5003;70244;48.792;9.172;2024-01-11T15:53:22;19;18;
60374;PMS5003;70244;48.792;9.172;2024-01-11T15:55:52;20;19;
60374;PMS5003;70244;48.792;9.172;2024-01-11T15:58:22;19;18;
60374;PMS5003;70244;48.792;9.172;2024-01-11T16:00:53;17;15;
60374;PMS5003;70244;48.792;9.172;2024-01-11T16:03:24;19;17;
60374;PMS5003;70244;48.792;9.172;2024-01-11T16:05:54;16;16;
60374;PMS5003;70244;48.792;9.172;2024-01-11T16:08:25;17;16;
60374;PMS5003;70244;48.792;9.172;2024-01-11T16:10:55;15;15;
60374;PMS5003;70244;48.792;9.172;2024-01-11T16:13:26;17;16;
60374;PMS5003;70244;48.792;9.172;2024-01-11T16:15:57;17;17;
60374;PMS5003;70244;48.792;9.172;2024-01-11T16:18:27;17;17;
60374;PMS5003;70244;48.792;9.172;2024-01-11T16:20:58;23;21;
60374;PMS5003;70244;48.792;9.172;2024-01-11T16:23:28;29;29;
60374;PMS5003;70244;48.792;9.172;2024-01-11T16:25:59;35;34;
60374;PMS5003;70244;48.792;9.172;2024-01-11T16:28:29;35;35;
60374;PMS5003;70244;48.792;9.172;2024-01-11T16:31:00;41;35;
60374;PMS5003;70244;48.792;9.172;2024-01-11T16:33:30;34;34;
60374;PMS5003;70244;48.792;9.172;2024-01-11T16:36:01;44;37;
60374;PMS5003;70244;48.792;9.172;2024-01-11T16:38:31;33;30;
60374;PMS5003;70244;48.792;9.172;2024-01-11T16:41:01;30;28;
60374;PMS5003;70244;48.792;9.172;2024-01-11T16:43:32;29;26;
60374;PMS5003;70244;48.792;9.172;2024-01-11T16:46:03;31;27;
60374;PMS5003;70244;48.792;9.172;2024-01-11T16:48:33;32;30;
60374;PMS5003;70244;48.792;9.172;2024-01-11T16:51:04;24;24;
60374;PMS5003;70244;48.792;9.172;2024-01-11T16:53:34;32;30;
60374;PMS5003;70244;48.792;9.172;2024-01-11T16:56:05;28;25;
60374;PMS5003;70244;48.792;9.172;2024-01-11T16:58:35;27;27;
60374;PMS5003;70244;48.792;9.172;2024-01-11T17:01:06;30;27;
60374;PMS5003;70244;48.792;9.172;2024-01-11T17:03:36;33;28;
60374;PMS5003;70244;48.792;9.172;2024-01-11T17:06:07;29;28;
60374;PMS5003;70244;48.792;9.172;2024-01-11T17:08:38;28;27;
60374;PMS5003;70244;48.792;9.172;2024-01-11T17:11:08;30;26;
60374;PMS5003;70244;48.792;9.172;2024-01-11T17:13:38;31;28;
60374;PMS5003;70244;48.792;9.172;2024-01-11T17:16:15;39;33;
60374;PMS5003;70244;48.792;9.172;2024-01-11T17:18:39;26;26;
60374;PMS5003;70244;48.792;9.172;2024-01-11T17:21:10;40;35;
60374;PMS5003;70244;48.792;9.172;2024-01-11T17:23:41;32;31;
60374;PMS5003;70244;48.792;9.172;2024-01-11T17:26:11;33;30;
60374;PMS5003;70244;48.792;9.172;2024-01-11T17:28:42;31;28;
60374;PMS5003;70244;48.792;9.172;2024-01-11T17:31:12;36;30;
60374;PMS5003;70244;48.792;9.172;2024-01-11T17:33:43;30;27;
60374;PMS5003;70244;48.792;9.172;2024-01-11T17:36:13;29;28;
60374;PMS5003;70244;48.792;9.172;2024-01-11T17:38:44;31;29;
60374;PMS5003;70244;48.792;9.172;2024-01-11T17:41:15;27;27;
60374;PMS5003;70244;48.792;9.172;2024-01-11T17:43:45;38;29;
60374;PMS5003;70244;48.792;9.172;2024-01-11T17:46:20;29;28;
60374;PMS5003;70244;48.792;9.172;2024-01-11T17:48:46;27;23;
60374;PMS5003;70244;48.792;9.172;2024-01-11T17:51:16;25;25;
60374;PMS5003;70244;48.792;9.172;2024-01-11T17:53:46;24;22;
60374;PMS5003;70244;48.792;9.172;2024-01-11T17:56:17;30;27;
60374;PMS5003;70244;48.792;9.172;2024-01-11T17:58:47;24;21;
60374;PMS5003;70244;48.792;9.172;2024-01-11T18:01:19;24;23;
60374;PMS5003;70244;48.792;9.172;2024-01-11T18:03:49;30;27;
60374;PMS5003;70244;48.792;9.172;2024-01-11T18:06:19;26;25;
60374;PMS5003;70244;48.792;9.172;2024-01-11T18:08:49;25;24;
60374;PMS5003;70244;48.792;9.172;2024-01-11T18:11:20;31;28;
60374;PMS5003;70244;48.792;9.172;2024-01-11T18:13:50;29;29;
60374;PMS5003;70244;48.792;9.172;2024-01-11T18:16:21;31;30;
60374;PMS5003;70244;48.792;9.172;2024-01-11T18:18:51;25;25;
60374;PMS5003;70244;48.792;9.172;2024-01-11T18:21:21;32;27;
60374;PMS5003;70244;48.792;9.172;2024-01-11T18:23:52;30;23;
60374;PMS5003;70244;48.792;9.172;2024-01-11T18:26:22;27;26;
60374;PMS5003;70244;48.792;9.172;2024-01-11T18:28:53;30;29;
60374;PMS5003;70244;48.792;9.172;2024-01-11T18:31:23;26;23;
60374;PMS5003;70244;48.792;9.172;2024-01-11T18:33:53;25;25;
60374;PMS5003;70244;48.792;9.172;2024-01-11T18:36:24;27;24;
60374;PMS5003;70244;48.792;9.172;2024-01-11T18:38:54;22;22;
60374;PMS5003;70244;48.792;9.172;2024-01-11T18:41:25;20;20;
60374;PMS5003;70244;48.792;9.172;2024-01-11T18:43:55;28;26;
60374;PMS5003;70244;48.792;9.172;2024-01-11T18:46:26;23;21;
60374;PMS5003;70244;48.792;9.172;2024-01-11T18:48:57;27;23;
60374;PMS5003;70244;48.792;9.172;2024-01-11T18:51:28;23;22;
60374;PMS5003;70244;48.792;9.172;2024-01-11T18:53:58;26;24;
60374;PMS5003;70244;48.792;9.172;2024-01-11T18:56:29;28;24;
60374;PMS5003;70244;48.792;9.172;2024-01-11T18:58:59;24;21;
60374;PMS5003;70244;48.792;9.172;2024-01-11T19:01:29;23;23;
60374;PMS5003;70244;48.792;9.172;2024-01-11T19:04:00;22;21;
60374;PMS5003;70244;48.792;9.172;2024-01-11T19:06:30;24;22;
60374;PMS5003;70244;48.792;9.172;2024-01-11T19:09:01;28;27;
60374;PMS5003;70244;48.792;9.172;2024-01-11T19:11:31;28;26;
60374;PMS5003;70244;48.792;9.172;2024-01-11T19:14:01;21;20;
60374;PMS5003;70244;48.792;9.172;2024-01-11T19:16:33;25;22;
60374;PMS5003;70244;48.792;9.172;2024-01-11T19:19:03;22;19;
60374;PMS5003;70244;48.792;9.172;2024-01-11T19:21:35;28;24;
60374;PMS5003;70244;48.792;9.172;2024-01-11T19:24:04;21;21;
60374;PMS5003;70244;48.792;9.172;2024-01-11T19:26:38;18;18;
60374;PMS5003;70244;48.792;9.172;2024-01-11T19:29:06;23;21;
60374;PMS5003;70244;48.792;9.172;2024-01-11T19:31:36;22;21;
60374;PMS5003;70244;48.792;9.172;2024-01-11T19:34:06;23;21;
60374;PMS5003;70244;48.792;9.172;2024-01-11T19:36:37;21;21;
60374;PMS5003;70244;48.792;9.172;2024-01-11T19:39:08;25;20;
60374;PMS5003;70244;48.792;9.172;2024-01-11T19:41:39;21;20;
60374;PMS5003;70244;48.792;9.172;2024-01-11T19:44:10;16;15;
60374;PMS5003;70244;48.792;9.172;2024-01-11T19:46:40;23;23;
60374;PMS5003;70244;48.792;9.172;2024-01-11T19:49:10;25;23;
60374;PMS5003;70244;48.792;9.172;2024-01-11T19:51:41;24;19;
60374;PMS5003;70244;48.792;9.172;2024-01-11T19:54:12;18;17;
60374;PMS5003;70244;48.792;9.172;2024-01-11T19:56:42;24;23;
60374;PMS5003;70244;48.792;9.172;2024-01-11T19:59:12;20;19;
60374;PMS5003;70244;48.792;9.172;2024-01-11T20:01:42;24;23;
60374;PMS5003;70244;48.792;9.172;2024-01-11T20:04:13;15;15;
60374;PMS5003;70244;48.792;9.172;2024-01-11T20:06:44;21;20;
60374;PMS5003;70244;48.792;9.172;2024-01-11T20:09:15;25;25;
60374;PMS5003;70244;48.792;9.172;2024-01-11T20:11:45;24;22;
60374;PMS5003;70244;48.792;9.172;2024-01-11T20:14:15;26;24;
60374;PMS5003;70244;48.792;9.172;2024-01-11T20:16:46;25;23;
60374;PMS5003;70244;48.792;9.172;2024-01-11T20:19:16;27;25;
60374;PMS5003;70244;48.792;9.172;2024-01-11T20:21:47;27;26;
60374;PMS5003;70244;48.792;9.172;2024-01-11T20:24:17;26;22;
60374;PMS5003;70244;48.792;9.172;2024-01-11T20:26:48;29;26;
60374;PMS5003;70244;48.792;9.172;2024-01-11T20:29:18;26;26;
60374;PMS5003;70244;48.792;9.172;2024-01-11T20:31:49;29;23;
60374;PMS5003;70244;48.792;9.172;2024-01-11T20:34:19;27;23;
60374;PMS5003;70244;48.792;9.172;2024-01-11T20:36:49;24;23;
60374;PMS5003;70244;48.792;9.172;2024-01-11T20:39:20;22;21;
60374;PMS5003;70244;48.792;9.172;2024-01-11T20:41:50;23;20;
60374;PMS5003;70244;48.792;9.172;2024-01-11T20:44:21;24;20;
60374;PMS5003;70244;48.792;9.172;2024-01-11T20:46:51;22;22;
60374;PMS5003;70244;48.792;9.172;2024-01-11T20:49:22;24;21;
60374;PMS5003;70244;48.792;9.172;2024-01-11T20:51:52;27;24;
60374;PMS5003;70244;48.792;9.172;2024-01-11T20:54:23;19;19;
60374;PMS5003;70244;48.792;9.172;2024-01-11T20:56:54;23;22;
60374;PMS5003;70244;48.792;9.172;2024-01-11T20:59:24;29;23;
60374;PMS5003;70244;48.792;9.172;2024-01-11T21:01:55;28;25;
60374;PMS5003;70244;48.792;9.172;2024-01-11T21:04:25;26;25;
60374;PMS5003;70244;48.792;9.172;2024-01-11T21:06:56;24;23;
60374;PMS5003;70244;48.792;9.172;2024-01-11T21:09:27;25;23;
60374;PMS5003;70244;48.792;9.172;2024-01-11T21:11:57;29;22;
60374;PMS5003;70244;48.792;9.172;2024-01-11T21:14:28;26;24;
60374;PMS5003;70244;48.792;9.172;2024-01-11T21:16:58;26;24;
60374;PMS5003;70244;48.792;9.172;2024-01-11T21:19:29;26;25;
60374;PMS5003;70244;48.792;9.172;2024-01-11T21:21:59;26;23;
60374;PMS5003;70244;48.792;9.172;2024-01-11T21:24:30;20;20;
60374;PMS5003;70244;48.792;9.172;2024-01-11T21:27:01;23;23;
60374;PMS5003;70244;48.792;9.172;2024-01-11T21:29:31;23;21;
60374;PMS5003;70244;48.792;9.172;2024-01-11T21:32:02;21;21;
60374;PMS5003;70244;48.792;9.172;2024-01-11T21:34:33;27;26;
60374;PMS5003;70244;48.792;9.172;2024-01-11T21:37:03;28;25;
60374;PMS5003;70244;48.792;9.172;2024-01-11T21:39:33;26;24;
60374;PMS5003;70244;48.792;9.172;2024-01-11T21:42:04;23;22;
60374;PMS5003;70244;48.792;9.172;2024-01-11T21:44:35;22;21;
60374;PMS5003;70244;48.792;9.172;2024-01-11T21:47:05;26;21;
60374;PMS5003;70244;48.792;9.172;2024-01-11T21:49:36;26;23;
60374;PMS5003;70244;48.792;9.172;2024-01-11T21:52:07;26;26;
60374;PMS5003;70244;48.792;9.172;2024-01-11T21:54:37;25;21;
60374;PMS5003;70244;48.792;9.172;2024-01-11T21:57:08;24;20;
60374;PMS5003;70244;48.792;9.172;2024-01-11T21:59:38;22;21;